createdAt,value
2023-05-04T00:02:13.637Z,23.30
2023-05-04T00:04:43.071Z,25.90
2023-05-04T00:07:11.096Z,23.30
2023-05-04T00:09:39.232Z,23.40
2023-05-04T00:12:08.288Z,17.90
2023-05-04T00:14:37.638Z,15.60
2023-05-04T00:17:06.880Z,18.70
2023-05-04T00:19:36.191Z,21.70
2023-05-04T00:22:04.115Z,18.40
2023-05-04T00:24:32.096Z,16.00
2023-05-04T00:27:00.147Z,18.10
2023-05-04T00:29:28.263Z,17.90
2023-05-04T00:31:56.721Z,21.40
2023-05-04T00:34:25.660Z,19.40
2023-05-04T00:36:53.891Z,18.90
2023-05-04T00:39:22.220Z,19.60
2023-05-04T00:41:50.877Z,19.50
2023-05-04T00:44:19.153Z,15.00
2023-05-04T00:46:47.409Z,14.30
2023-05-04T00:49:15.950Z,19.20
2023-05-04T00:51:44.095Z,18.10
2023-05-04T00:54:12.295Z,21.80
2023-05-04T00:56:43.469Z,17.50
2023-05-04T00:59:13.663Z,18.30
2023-05-04T01:01:42.179Z,18.30
2023-05-04T01:04:10.972Z,17.50
2023-05-04T01:06:44.262Z,21.90
2023-05-04T01:09:30.109Z,18.10
2023-05-04T01:12:06.566Z,19.50
2023-05-04T01:14:36.464Z,17.50
2023-05-04T01:17:06.265Z,17.70
2023-05-04T01:19:34.535Z,20.00
2023-05-04T01:22:04.005Z,16.80
2023-05-04T01:24:32.497Z,15.10
2023-05-04T01:27:09.274Z,20.10
2023-05-04T01:29:52.616Z,15.90
2023-05-04T01:32:23.052Z,13.90
2023-05-04T01:34:51.385Z,13.80
2023-05-04T01:37:19.560Z,14.90
2023-05-04T01:39:47.724Z,13.70
2023-05-04T01:42:15.885Z,15.30
2023-05-04T01:44:45.038Z,12.60
2023-05-04T01:47:13.088Z,15.30
2023-05-04T01:49:41.031Z,14.60
2023-05-04T01:52:10.864Z,21.40
2023-05-04T01:54:38.774Z,16.70
2023-05-04T01:57:06.691Z,16.20
2023-05-04T01:59:34.711Z,12.80
2023-05-04T02:02:02.783Z,13.90
2023-05-04T02:04:31.000Z,11.70
2023-05-04T02:06:59.082Z,19.00
2023-05-04T02:09:26.981Z,13.20
2023-05-04T02:11:55.741Z,12.10
2023-05-04T02:14:26.175Z,13.50
2023-05-04T02:16:54.439Z,13.90
2023-05-04T02:19:22.516Z,20.20
2023-05-04T02:21:50.583Z,14.70
2023-05-04T02:24:18.613Z,12.00
2023-05-04T02:26:46.608Z,16.70
2023-05-04T02:29:14.598Z,15.20
2023-05-04T02:31:42.662Z,12.80
2023-05-04T02:34:10.656Z,18.30
2023-05-04T02:36:42.548Z,13.20
2023-05-04T02:39:10.528Z,11.00
2023-05-04T02:41:38.421Z,13.60
2023-05-04T02:44:06.534Z,10.50
2023-05-04T02:46:34.466Z,14.30
2023-05-04T02:49:02.511Z,13.70
2023-05-04T02:51:30.504Z,13.70
2023-05-04T02:53:58.559Z,18.00
2023-05-04T02:56:26.740Z,15.80
2023-05-04T02:58:54.975Z,15.30
2023-05-04T03:01:23.041Z,22.20
2023-05-04T03:03:51.087Z,17.10
2023-05-04T03:06:19.378Z,11.70
2023-05-04T03:08:47.305Z,14.40
2023-05-04T03:11:16.569Z,16.00
2023-05-04T03:13:44.573Z,12.70
2023-05-04T03:16:12.658Z,12.60
2023-05-04T03:18:40.718Z,11.90
2023-05-04T03:21:08.853Z,10.90
2023-05-04T03:23:37.404Z,13.20
2023-05-04T03:26:05.592Z,14.30
2023-05-04T03:28:33.552Z,12.00
2023-05-04T03:31:02.130Z,12.00
2023-05-04T03:33:31.021Z,12.80
2023-05-04T03:35:59.109Z,14.50
2023-05-04T03:38:27.204Z,11.10
2023-05-04T03:40:56.640Z,15.60
2023-05-04T03:43:24.674Z,16.20
2023-05-04T03:45:54.052Z,17.40
2023-05-04T03:48:22.000Z,15.60
2023-05-04T03:50:50.110Z,20.00
2023-05-04T03:53:18.161Z,17.00
2023-05-04T03:55:46.384Z,18.40
2023-05-04T03:58:14.761Z,10.90
2023-05-04T04:00:43.031Z,11.50
2023-05-04T04:03:13.939Z,11.20
2023-05-04T04:05:42.540Z,9.20
2023-05-04T04:08:10.586Z,13.10
2023-05-04T04:10:38.607Z,29.00
2023-05-04T04:13:06.752Z,21.80
2023-05-04T04:15:34.723Z,19.60
2023-05-04T04:18:02.792Z,18.70
2023-05-04T04:20:31.167Z,29.00
2023-05-04T04:22:59.087Z,20.40
2023-05-04T04:25:27.508Z,16.80
2023-05-04T04:27:55.667Z,25.00
2023-05-04T04:30:23.642Z,14.60
2023-05-04T04:32:51.667Z,21.40
2023-05-04T04:35:19.812Z,27.10
2023-05-04T04:37:47.854Z,28.60
2023-05-04T04:40:15.872Z,26.80
2023-05-04T04:42:44.155Z,24.50
2023-05-04T04:45:12.811Z,19.40
2023-05-04T04:47:42.251Z,27.30
2023-05-04T04:50:11.515Z,23.40
2023-05-04T04:52:41.529Z,20.00
2023-05-04T04:55:09.887Z,31.30
2023-05-04T04:57:37.983Z,16.50
2023-05-04T05:00:10.412Z,15.50
2023-05-04T05:02:38.674Z,12.90
2023-05-04T05:05:07.874Z,14.60
2023-05-04T05:07:36.487Z,14.20
2023-05-04T05:10:05.736Z,39.10
2023-05-04T05:12:34.137Z,36.00
2023-05-04T05:15:04.419Z,19.50
2023-05-04T05:17:32.574Z,17.70
2023-05-04T05:20:00.898Z,18.40
2023-05-04T05:22:29.087Z,18.70
2023-05-04T05:24:57.564Z,17.20
2023-05-04T05:27:25.727Z,21.90
2023-05-04T05:29:53.906Z,13.00
2023-05-04T05:32:22.441Z,20.50
2023-05-04T05:34:50.729Z,12.80
2023-05-04T05:37:19.026Z,18.20
2023-05-04T05:39:48.325Z,19.10
2023-05-04T05:42:16.732Z,19.30
2023-05-04T05:44:45.283Z,16.60
2023-05-04T05:47:13.413Z,15.20
2023-05-04T05:49:43.031Z,21.70
2023-05-04T05:52:12.511Z,14.30
2023-05-04T05:54:40.715Z,16.20
2023-05-04T05:57:08.857Z,13.90
2023-05-04T05:59:37.280Z,14.00
2023-05-04T06:02:06.134Z,12.30
2023-05-04T06:04:34.701Z,14.80
2023-05-04T06:07:02.902Z,16.00
2023-05-04T06:09:31.194Z,20.10
2023-05-04T06:11:59.452Z,20.20
2023-05-04T06:14:27.723Z,16.60
2023-05-04T06:16:56.026Z,14.10
2023-05-04T06:19:24.715Z,12.40
2023-05-04T06:21:53.096Z,13.70
2023-05-04T06:24:22.707Z,14.10
2023-05-04T06:26:51.184Z,21.30
2023-05-04T06:29:19.437Z,15.90
2023-05-04T06:31:48.472Z,14.50
2023-05-04T06:34:19.912Z,13.80
2023-05-04T06:36:49.311Z,23.40
2023-05-04T06:39:17.570Z,23.80
2023-05-04T06:41:45.812Z,14.20
2023-05-04T06:44:14.714Z,16.70
2023-05-04T06:46:43.331Z,27.70
2023-05-04T06:49:12.435Z,19.10
2023-05-04T06:51:41.043Z,16.90
2023-05-04T06:54:09.304Z,23.70
2023-05-04T06:56:39.692Z,75.20
2023-05-04T06:59:10.048Z,20.50
2023-05-04T07:01:38.986Z,21.40
2023-05-04T07:04:07.835Z,22.90
2023-05-04T07:06:37.040Z,21.40
2023-05-04T07:09:05.764Z,19.60
2023-05-04T07:11:34.178Z,24.60
2023-05-04T07:14:03.038Z,28.40
2023-05-04T07:16:33.187Z,21.90
2023-05-04T07:19:01.625Z,26.90
2023-05-04T07:21:29.974Z,33.60
2023-05-04T07:23:58.543Z,37.70
2023-05-04T07:26:26.688Z,28.10
2023-05-04T07:28:55.012Z,43.60
2023-05-04T07:31:23.434Z,28.10
2023-05-04T07:33:51.658Z,24.00
2023-05-04T07:36:21.044Z,38.30
2023-05-04T07:38:49.416Z,39.50
2023-05-04T07:41:17.524Z,29.30
2023-05-04T07:43:46.282Z,25.50
2023-05-04T07:46:14.611Z,27.40
2023-05-04T07:48:42.937Z,28.80
2023-05-04T07:51:15.005Z,16.50
2023-05-04T07:53:43.871Z,34.40
2023-05-04T07:56:13.798Z,32.40
2023-05-04T07:58:42.293Z,27.20
2023-05-04T08:01:10.656Z,34.70
2023-05-04T08:03:38.666Z,27.20
2023-05-04T08:06:08.505Z,33.50
2023-05-04T08:08:36.697Z,39.40
2023-05-04T08:11:16.011Z,28.90
2023-05-04T08:13:49.857Z,22.90
2023-05-04T08:16:18.441Z,28.30
2023-05-04T08:18:46.719Z,31.70
2023-05-04T08:21:15.028Z,52.60
2023-05-04T08:23:43.751Z,30.00
2023-05-04T08:26:12.189Z,39.30
2023-05-04T08:28:41.229Z,31.80
2023-05-04T08:31:09.371Z,18.40
2023-05-04T08:33:37.600Z,28.30
2023-05-04T08:36:09.162Z,31.50
2023-05-04T08:38:37.459Z,22.80
2023-05-04T08:41:07.154Z,23.20
2023-05-04T08:43:36.710Z,35.50
2023-05-04T08:46:06.807Z,27.30
2023-05-04T08:48:35.294Z,25.70
2023-05-04T08:51:06.655Z,38.60
2023-05-04T08:53:37.728Z,29.60
2023-05-04T08:56:12.552Z,19.10
2023-05-04T08:58:51.413Z,24.80
2023-05-04T09:01:21.468Z,30.60
2023-05-04T09:03:51.750Z,32.20
2023-05-04T09:06:20.950Z,22.90
2023-05-04T09:08:49.249Z,20.10
2023-05-04T09:11:17.993Z,24.00
2023-05-04T09:13:48.367Z,16.20
2023-05-04T09:16:16.831Z,16.60
2023-05-04T09:18:46.086Z,13.10
2023-05-04T09:21:14.376Z,22.00
2023-05-04T09:23:49.991Z,16.70
2023-05-04T09:26:32.076Z,10.30
2023-05-04T09:29:15.975Z,11.10
2023-05-04T09:31:49.087Z,15.90
2023-05-04T09:34:20.431Z,11.40
2023-05-04T09:37:01.929Z,11.00
2023-05-04T09:39:30.745Z,10.80
2023-05-04T09:41:58.847Z,9.70
2023-05-04T09:44:29.925Z,12.80
2023-05-04T09:46:59.185Z,15.80
2023-05-04T09:49:39.146Z,11.70
2023-05-04T09:52:07.552Z,11.30
2023-05-04T09:54:38.014Z,8.30
2023-05-04T09:57:15.867Z,9.70
2023-05-04T09:59:44.482Z,15.50
2023-05-04T10:02:22.769Z,10.80
2023-05-04T10:04:52.717Z,8.90
2023-05-04T10:07:21.223Z,17.60
2023-05-04T10:09:51.450Z,13.00
2023-05-04T10:12:19.907Z,16.20
2023-05-04T10:14:49.189Z,18.30
2023-05-04T10:17:33.007Z,17.30
2023-05-04T10:20:26.562Z,11.30
2023-05-04T10:23:15.454Z,8.70
2023-05-04T10:26:04.871Z,12.50
2023-05-04T10:28:54.939Z,11.20
2023-05-04T10:31:23.606Z,14.60
2023-05-04T10:33:52.046Z,11.40
2023-05-04T10:36:20.643Z,12.90
2023-05-04T10:38:49.205Z,11.30
2023-05-04T10:41:18.517Z,13.70
2023-05-04T10:43:53.273Z,13.50
2023-05-04T10:46:23.187Z,11.60
2023-05-04T10:48:51.843Z,28.70
2023-05-04T10:51:22.799Z,15.60
2023-05-04T10:53:52.442Z,15.00
2023-05-04T10:56:26.092Z,9.90
2023-05-04T10:58:55.220Z,10.00
2023-05-04T11:01:24.266Z,12.10
2023-05-04T11:03:54.130Z,12.70
2023-05-04T11:06:24.606Z,9.80
2023-05-04T11:09:02.130Z,13.20
2023-05-04T11:11:30.907Z,13.20
2023-05-04T11:13:59.295Z,12.40
2023-05-04T11:16:27.801Z,10.20
2023-05-04T11:19:07.274Z,17.30
2023-05-04T11:21:35.574Z,18.00
2023-05-04T11:24:04.145Z,11.10
2023-05-04T11:26:33.286Z,10.00
2023-05-04T11:29:12.122Z,10.80
2023-05-04T11:31:40.713Z,14.70
2023-05-04T11:34:08.975Z,9.20
2023-05-04T11:36:40.505Z,11.10
2023-05-04T11:39:09.328Z,8.80
2023-05-04T11:41:37.904Z,11.70
2023-05-04T11:44:08.881Z,8.00
2023-05-04T11:46:38.038Z,13.50
2023-05-04T11:49:07.032Z,9.10
2023-05-04T11:51:36.000Z,9.20
2023-05-04T11:54:07.344Z,15.90
2023-05-04T11:56:42.906Z,10.20
2023-05-04T11:59:11.166Z,12.00
2023-05-04T12:01:39.636Z,9.10
2023-05-04T12:04:08.250Z,8.20
2023-05-04T12:06:38.445Z,5.10
2023-05-04T12:09:07.399Z,8.30
2023-05-04T12:11:38.489Z,8.10
2023-05-04T12:14:14.247Z,7.40
2023-05-04T12:16:43.347Z,9.80
2023-05-04T12:19:15.893Z,9.50
2023-05-04T12:21:52.142Z,7.20
2023-05-04T12:24:25.197Z,8.90
2023-05-04T12:26:53.550Z,8.00
2023-05-04T12:29:21.830Z,5.70
2023-05-04T12:31:50.312Z,14.10
2023-05-04T12:34:18.755Z,7.80
2023-05-04T12:36:51.034Z,5.80
2023-05-04T12:39:19.430Z,13.00
2023-05-04T12:41:48.100Z,8.60
2023-05-04T12:44:17.369Z,10.10
2023-05-04T12:46:46.013Z,6.00
2023-05-04T12:49:15.125Z,19.80
2023-05-04T12:51:44.317Z,7.20
2023-05-04T12:54:13.132Z,12.70
2023-05-04T12:56:41.819Z,22.20
2023-05-04T12:59:11.150Z,14.50
2023-05-04T13:01:41.663Z,9.10
2023-05-04T13:04:10.488Z,8.70
2023-05-04T13:06:39.299Z,11.80
2023-05-04T13:09:07.544Z,11.70
2023-05-04T13:11:35.897Z,7.80
2023-05-04T13:14:04.242Z,7.90
2023-05-04T13:16:32.667Z,8.30
2023-05-04T13:19:01.029Z,7.70
2023-05-04T13:21:29.307Z,9.90
2023-05-04T13:23:59.513Z,7.70
2023-05-04T13:26:27.863Z,11.70
2023-05-04T13:28:56.160Z,8.80
2023-05-04T13:31:24.704Z,8.10
2023-05-04T13:33:53.709Z,12.90
2023-05-04T13:36:22.144Z,9.80
2023-05-04T13:38:51.530Z,10.80
2023-05-04T13:41:20.850Z,13.10
2023-05-04T13:43:49.076Z,14.40
2023-05-04T13:46:17.312Z,9.90
2023-05-04T13:48:45.765Z,15.10
2023-05-04T13:51:14.331Z,15.10
2023-05-04T13:53:43.141Z,11.20
2023-05-04T13:56:11.317Z,10.30
2023-05-04T13:58:39.923Z,7.70
2023-05-04T14:01:09.273Z,9.90
2023-05-04T14:03:37.619Z,10.20
2023-05-04T14:06:06.459Z,7.80
2023-05-04T14:08:34.604Z,7.90
2023-05-04T14:11:03.329Z,6.30
2023-05-04T14:13:31.446Z,8.80
2023-05-04T14:15:59.854Z,9.20
2023-05-04T14:18:28.794Z,10.60
2023-05-04T14:20:57.149Z,10.20
2023-05-04T14:23:25.570Z,9.60
2023-05-04T14:25:57.084Z,6.10
2023-05-04T14:28:26.286Z,11.90
2023-05-04T14:30:54.567Z,9.60
2023-05-04T14:33:22.774Z,6.40
2023-05-04T14:35:51.040Z,8.40
2023-05-04T14:38:19.202Z,6.10
2023-05-04T14:40:49.513Z,6.30
2023-05-04T14:43:18.045Z,8.10
2023-05-04T14:45:46.427Z,16.10
2023-05-04T14:48:14.786Z,11.70
2023-05-04T14:50:43.674Z,12.20
2023-05-04T14:53:11.955Z,13.90
2023-05-04T14:55:42.261Z,9.30
2023-05-04T14:58:13.050Z,14.10
2023-05-04T15:00:43.963Z,13.90
2023-05-04T15:03:13.175Z,8.30
2023-05-04T15:05:41.569Z,10.90
2023-05-04T15:08:09.715Z,11.30
2023-05-04T15:10:38.295Z,7.30
2023-05-04T15:13:07.013Z,11.00
2023-05-04T15:15:39.812Z,10.30
2023-05-04T15:18:08.270Z,8.20
2023-05-04T15:20:40.278Z,6.80
2023-05-04T15:23:12.890Z,11.10
2023-05-04T15:25:42.081Z,11.60
2023-05-04T15:28:11.220Z,7.70
2023-05-04T15:30:42.761Z,10.40
2023-05-04T15:33:11.157Z,10.20
2023-05-04T15:35:39.384Z,9.90
2023-05-04T15:38:07.473Z,11.20
2023-05-04T15:40:35.686Z,10.10
2023-05-04T15:43:03.918Z,11.20
2023-05-04T15:45:32.352Z,9.10
2023-05-04T15:48:00.667Z,21.70
2023-05-04T15:50:29.520Z,10.40
2023-05-04T15:52:58.586Z,8.90
2023-05-04T15:55:27.095Z,8.10
2023-05-04T15:57:55.307Z,11.80
2023-05-04T16:00:24.610Z,8.60
2023-05-04T16:02:53.311Z,6.90
2023-05-04T16:05:25.164Z,11.90
2023-05-04T16:07:54.868Z,11.50
2023-05-04T16:10:23.421Z,7.60
2023-05-04T16:12:52.063Z,18.00
2023-05-04T16:15:20.822Z,9.60
2023-05-04T16:17:49.188Z,12.50
2023-05-04T16:20:17.344Z,9.20
2023-05-04T16:22:45.750Z,11.50
2023-05-04T16:25:13.876Z,17.10
2023-05-04T16:27:42.000Z,9.10
2023-05-04T16:30:11.370Z,13.00
2023-05-04T16:32:39.877Z,13.80
2023-05-04T16:35:08.298Z,14.40
2023-05-04T16:37:38.136Z,13.20
2023-05-04T16:40:11.550Z,18.50
2023-05-04T16:42:40.429Z,17.40
2023-05-04T16:45:11.562Z,12.80
2023-05-04T16:47:44.455Z,11.20
2023-05-04T16:50:14.409Z,9.70
2023-05-04T16:52:42.770Z,16.30
2023-05-04T16:55:12.432Z,14.80
2023-05-04T16:57:41.168Z,12.90
2023-05-04T17:00:10.578Z,8.60
2023-05-04T17:02:39.266Z,10.40
2023-05-04T17:05:10.702Z,10.80
2023-05-04T17:07:43.605Z,10.40
2023-05-04T17:10:12.428Z,18.90
2023-05-04T17:12:42.320Z,11.00
2023-05-04T17:15:11.864Z,16.10
2023-05-04T17:17:41.528Z,13.00
2023-05-04T17:20:15.058Z,11.70
2023-05-04T17:22:44.002Z,8.50
2023-05-04T17:25:12.944Z,12.10
2023-05-04T17:27:41.296Z,10.90
2023-05-04T17:30:10.811Z,15.00
2023-05-04T17:32:38.866Z,10.70
2023-05-04T17:35:16.530Z,17.00
2023-05-04T17:37:52.114Z,13.50
2023-05-04T17:40:20.508Z,15.10
2023-05-04T17:42:48.560Z,15.40
2023-05-04T17:45:16.689Z,12.30
2023-05-04T17:47:46.487Z,12.00
2023-05-04T17:50:14.510Z,9.30
2023-05-04T17:52:42.713Z,10.30
2023-05-04T17:55:11.202Z,8.50
2023-05-04T17:57:39.163Z,16.10
2023-05-04T18:00:09.034Z,10.90
2023-05-04T18:02:37.280Z,10.90
2023-05-04T18:05:05.650Z,10.40
2023-05-04T18:07:33.744Z,12.30
2023-05-04T18:10:02.953Z,11.70
2023-05-04T18:12:30.936Z,10.10
2023-05-04T18:14:58.930Z,9.80
2023-05-04T18:17:28.753Z,9.40
2023-05-04T18:19:56.804Z,10.00
2023-05-04T18:22:24.803Z,17.90
2023-05-04T18:24:53.104Z,12.90
2023-05-04T18:27:21.167Z,18.70
2023-05-04T18:29:49.778Z,10.40
2023-05-04T18:32:17.912Z,11.10
2023-05-04T18:34:48.072Z,12.10
2023-05-04T18:37:16.707Z,12.20
2023-05-04T18:39:44.735Z,8.30
2023-05-04T18:42:13.039Z,11.50
2023-05-04T18:44:41.452Z,9.70
2023-05-04T18:47:10.228Z,13.10
2023-05-04T18:49:38.409Z,17.20
2023-05-04T18:52:06.434Z,12.60
2023-05-04T18:54:34.586Z,9.70
2023-05-04T18:57:03.753Z,14.30
2023-05-04T18:59:34.467Z,11.10
2023-05-04T19:02:02.859Z,13.90
2023-05-04T19:04:31.048Z,12.70
2023-05-04T19:06:59.360Z,13.90
2023-05-04T19:09:28.216Z,10.40
2023-05-04T19:11:56.469Z,9.80
2023-05-04T19:14:25.537Z,16.40
2023-05-04T19:16:55.319Z,14.70
2023-05-04T19:19:24.505Z,11.20
2023-05-04T19:21:52.659Z,17.80
2023-05-04T19:24:20.746Z,13.30
2023-05-04T19:26:48.975Z,7.20
2023-05-04T19:29:16.928Z,9.40
2023-05-04T19:31:44.939Z,11.20
2023-05-04T19:34:13.413Z,10.10
2023-05-04T19:36:42.745Z,12.30
2023-05-04T19:39:10.694Z,8.20
2023-05-04T19:41:38.740Z,10.70
2023-05-04T19:44:10.175Z,8.50
2023-05-04T19:46:38.231Z,11.90
2023-05-04T19:49:06.298Z,11.00
2023-05-04T19:51:34.687Z,10.80
2023-05-04T19:54:02.789Z,12.30
2023-05-04T19:56:30.674Z,11.70
2023-05-04T19:58:58.567Z,8.00
2023-05-04T20:01:26.473Z,11.80
2023-05-04T20:03:55.824Z,15.10
2023-05-04T20:06:23.868Z,14.50
2023-05-04T20:08:52.031Z,15.90
2023-05-04T20:11:20.061Z,10.30
2023-05-04T20:13:48.102Z,11.70
2023-05-04T20:16:16.490Z,12.20
2023-05-04T20:18:44.646Z,16.00
2023-05-04T20:21:12.916Z,16.20
2023-05-04T20:23:40.915Z,11.90
2023-05-04T20:26:09.010Z,17.30
2023-05-04T20:28:37.123Z,15.20
2023-05-04T20:31:05.805Z,17.30
2023-05-04T20:33:33.889Z,14.40
2023-05-04T20:36:02.748Z,15.20
2023-05-04T20:38:30.711Z,16.30
2023-05-04T20:41:06.005Z,15.30
2023-05-04T20:46:02.636Z,17.90
2023-05-04T20:48:31.893Z,14.20
2023-05-04T20:51:12.725Z,15.10
2023-05-04T20:53:43.097Z,11.80
2023-05-04T20:56:11.535Z,8.90
2023-05-04T20:58:39.620Z,10.30
2023-05-04T21:01:07.720Z,10.40
2023-05-04T21:03:36.592Z,8.70
2023-05-04T21:06:06.251Z,15.40
2023-05-04T21:08:35.906Z,12.00
2023-05-04T21:11:04.570Z,9.90
2023-05-04T21:13:32.581Z,12.40
2023-05-04T21:16:00.533Z,11.60
2023-05-04T21:18:28.494Z,10.40
2023-05-04T21:20:56.603Z,14.90
2023-05-04T21:23:25.313Z,14.20
2023-05-04T21:26:01.032Z,16.50
2023-05-04T21:28:30.084Z,13.30
2023-05-04T21:30:58.161Z,11.90
2023-05-04T21:33:26.453Z,13.60
2023-05-04T21:35:54.448Z,14.60
2023-05-04T21:38:22.583Z,15.40
2023-05-04T21:40:50.766Z,13.40
2023-05-04T21:43:18.751Z,14.30
2023-05-04T21:45:46.750Z,11.70
2023-05-04T21:48:14.814Z,16.60
2023-05-04T21:50:42.781Z,10.70
2023-05-04T21:53:11.457Z,9.90
2023-05-04T21:55:39.250Z,9.60
2023-05-04T21:58:07.669Z,10.50
2023-05-04T22:00:35.807Z,13.90
2023-05-04T22:03:04.126Z,12.60
2023-05-04T22:05:32.012Z,13.70
2023-05-04T22:08:01.057Z,15.30
2023-05-04T22:10:29.254Z,11.40
2023-05-04T22:12:57.369Z,11.30
2023-05-04T22:15:29.471Z,14.60
2023-05-04T22:18:03.142Z,12.00
2023-05-04T22:20:31.153Z,12.40
2023-05-04T22:22:59.085Z,12.80
2023-05-04T22:25:27.058Z,10.20
2023-05-04T22:27:55.111Z,11.00
2023-05-04T22:30:23.564Z,12.70
2023-05-04T22:32:52.645Z,12.60
2023-05-04T22:35:21.345Z,13.60
2023-05-04T22:37:50.901Z,11.70
2023-05-04T22:40:19.393Z,14.00
2023-05-04T22:42:47.521Z,12.70
2023-05-04T22:45:15.954Z,12.00
2023-05-04T22:47:44.711Z,11.90
2023-05-04T22:50:13.767Z,13.20
2023-05-04T22:52:41.932Z,12.10
2023-05-04T22:55:10.391Z,10.40
2023-05-04T22:57:38.359Z,6.20
2023-05-04T23:00:08.401Z,9.00
2023-05-04T23:02:36.843Z,8.90
2023-05-04T23:05:06.095Z,6.20
2023-05-04T23:07:34.064Z,7.20
2023-05-04T23:10:02.183Z,7.50
2023-05-04T23:12:30.122Z,8.30
2023-05-04T23:14:58.250Z,8.10
2023-05-04T23:17:26.412Z,7.90
2023-05-04T23:19:54.446Z,35.00
2023-05-04T23:22:22.534Z,9.10
2023-05-04T23:24:50.468Z,10.20
2023-05-04T23:27:18.711Z,18.50
2023-05-04T23:29:46.575Z,13.00
2023-05-04T23:32:14.626Z,10.10
2023-05-04T23:34:43.053Z,9.10
2023-05-04T23:37:11.154Z,12.60
2023-05-04T23:39:39.451Z,9.50
2023-05-04T23:42:07.435Z,10.40
2023-05-04T23:44:35.418Z,11.70
2023-05-04T23:47:03.522Z,12.90
2023-05-04T23:49:31.542Z,11.30
2023-05-04T23:51:59.558Z,12.20
2023-05-04T23:54:27.592Z,10.80
2023-05-04T23:56:55.510Z,11.00
2023-05-04T23:59:23.494Z,11.30
